Time;durP1;ratioP1;P1;durP2;ratioP2;P2;SDS_P1;SDS_P2;PMS_P1;PMS_P2;Temp;Humidity;BMP_temperature;BMP_pressure;BME280_temperature;BME280_humidity;BME280_pressure;Samples;Min_cycle;Max_cycle;Signal;HPM_P1;HPM_P2
2022/03/29 00:00:36;;;;;;;;;;;6.20;99.90;;;;;;5030441;28;19940;-53
2022/03/29 00:03:08;;;;;;;;;;;6.20;99.90;;;;;;5050628;23;19927;-57
2022/03/29 00:05:35;;;;;;;;;;;6.20;99.90;;;;;;5001745;28;19922;-52
2022/03/29 00:08:00;;;;;;;;;;;6.20;99.90;;;;;;4999289;28;20422;-56
2022/03/29 00:10:26;;;;;;;;;;;6.30;99.90;;;;;;4991296;28;20128;-56
2022/03/29 00:12:53;;;;;;;;;;;6.40;99.90;;;;;;4991242;28;19976;-53
2022/03/29 00:15:19;;;;;;;;;;;6.40;99.90;;;;;;4996905;28;19925;-51
2022/03/29 00:17:45;;;;;;;;;;;6.30;99.90;;;;;;4990711;28;19914;-55
2022/03/29 00:20:10;;;;;;;;;;;6.40;99.90;;;;;;4992078;28;19914;-50
2022/03/29 00:22:36;;;;;;;;;;;6.40;99.90;;;;;;4989897;28;19918;-53
2022/03/29 00:25:01;;;;;;;;;;;6.40;99.90;;;;;;4990816;28;19917;-56
2022/03/29 00:27:27;;;;;;;;;;;6.40;99.90;;;;;;4989884;28;19914;-53
2022/03/29 00:29:52;;;;;;;;;;;6.40;99.90;;;;;;4990411;28;19922;-53
2022/03/29 00:32:18;;;;;;;;;;;6.50;99.90;;;;;;4994012;28;20344;-54
2022/03/29 00:34:43;;;;;;;;;;;6.50;99.90;;;;;;4989328;28;19922;-54
2022/03/29 00:37:09;;;;;;;;;;;6.60;99.90;;;;;;4992440;28;20008;-52
2022/03/29 00:39:34;;;;;;;;;;;6.60;99.90;;;;;;4989769;28;19925;-56
2022/03/29 00:42:00;;;;;;;;;;;6.60;99.90;;;;;;4989470;28;19961;-53
2022/03/29 00:44:35;;;;;;;;;;;6.60;99.90;;;;;;4990086;28;19984;-53
2022/03/29 00:47:01;;;;;;;;;;;6.70;99.90;;;;;;4992322;28;19914;-55
2022/03/29 00:49:27;;;;;;;;;;;6.70;99.90;;;;;;4988675;28;20314;-51
2022/03/29 00:51:58;;;;;;;;;;;6.70;99.90;;;;;;4991276;28;20008;-54
2022/03/29 00:54:32;;;;;;;;;;;6.70;99.90;;;;;;4990326;28;19921;-55
2022/03/29 00:56:57;;;;;;;;;;;6.70;99.90;;;;;;4992206;28;20379;-54
2022/03/29 00:59:23;;;;;;;;;;;6.70;99.90;;;;;;4989949;28;19976;-57
2022/03/29 01:01:49;;;;;;;;;;;6.60;99.90;;;;;;4995786;28;19964;-53
2022/03/29 01:04:15;;;;;;;;;;;6.60;99.90;;;;;;4994772;28;19922;-52
2022/03/29 01:06:42;;;;;;;;;;;6.60;99.90;;;;;;4989756;28;19914;-54
2022/03/29 01:09:07;;;;;;;;;;;6.60;99.90;;;;;;4988909;28;20298;-55
2022/03/29 01:11:33;;;;;;;;;;;6.60;99.90;;;;;;4992510;28;19917;-49
2022/03/29 01:13:59;;;;;;;;;;;6.60;99.90;;;;;;5000068;28;20307;-53
2022/03/29 01:19:11;;;;;;;;;;;6.60;99.90;;;;;;4989596;28;20052;-54
2022/03/29 01:21:38;;;;;;;;;;;6.50;99.90;;;;;;4995068;28;19972;-50
2022/03/29 01:24:04;;;;;;;;;;;6.50;99.90;;;;;;4991145;28;20370;-53
2022/03/29 01:26:30;;;;;;;;;;;6.40;99.90;;;;;;4988207;28;19967;-54
2022/03/29 01:28:55;;;;;;;;;;;6.40;99.90;;;;;;4993123;28;19925;-51
2022/03/29 01:31:22;;;;;;;;;;;6.40;99.90;;;;;;4990404;28;19913;-54
2022/03/29 01:33:47;;;;;;;;;;;6.50;99.90;;;;;;4995219;28;19928;-54
2022/03/29 01:36:13;;;;;;;;;;;6.50;99.90;;;;;;4996080;28;20012;-55
2022/03/29 01:38:40;;;;;;;;;;;6.50;99.90;;;;;;4996187;28;19918;-53
2022/03/29 01:41:05;;;;;;;;;;;6.40;99.90;;;;;;4995927;28;20363;-49
2022/03/29 01:43:32;;;;;;;;;;;6.50;99.90;;;;;;4989899;28;19914;-53
2022/03/29 01:45:57;;;;;;;;;;;6.40;99.90;;;;;;4988838;28;19993;-52
2022/03/29 01:48:24;;;;;;;;;;;6.50;99.90;;;;;;4989830;28;19996;-53
2022/03/29 01:50:51;;;;;;;;;;;6.50;99.90;;;;;;4990159;28;19949;-50
2022/03/29 01:53:26;;;;;;;;;;;6.50;99.90;;;;;;4992542;28;19925;-56
2022/03/29 01:55:58;;;;;;;;;;;6.40;99.90;;;;;;4989188;28;19953;-53
2022/03/29 01:58:24;;;;;;;;;;;6.50;99.90;;;;;;4990916;28;20098;-53
2022/03/29 02:00:50;;;;;;;;;;;6.50;99.90;;;;;;4988649;28;20004;-56
2022/03/29 02:03:15;;;;;;;;;;;6.40;99.90;;;;;;4987859;28;19982;-53
2022/03/29 02:05:41;;;;;;;;;;;6.40;99.90;;;;;;4988048;28;19914;-53
2022/03/29 02:08:07;;;;;;;;;;;6.40;99.90;;;;;;4992116;28;19918;-50
2022/03/29 02:10:32;;;;;;;;;;;6.50;99.90;;;;;;4988806;28;20367;-53
2022/03/29 02:12:58;;;;;;;;;;;6.50;99.90;;;;;;4988391;28;19917;-55
2022/03/29 02:15:23;;;;;;;;;;;6.40;99.90;;;;;;4988540;28;20240;-57
2022/03/29 02:17:49;;;;;;;;;;;6.40;99.90;;;;;;4992501;28;19917;-51
2022/03/29 02:20:14;;;;;;;;;;;6.40;99.90;;;;;;4989327;28;19921;-55
2022/03/29 02:22:40;;;;;;;;;;;6.40;99.90;;;;;;4987862;28;20117;-56
2022/03/29 02:25:06;;;;;;;;;;;6.40;99.90;;;;;;4987806;28;19918;-54
2022/03/29 02:27:31;;;;;;;;;;;6.40;99.90;;;;;;4989059;28;19929;-56
2022/03/29 02:29:56;;;;;;;;;;;6.40;99.90;;;;;;4988760;28;19914;-53
2022/03/29 02:32:22;;;;;;;;;;;6.40;99.90;;;;;;4986495;28;19917;-53
2022/03/29 02:34:47;;;;;;;;;;;6.50;99.90;;;;;;4988108;28;19922;-53
2022/03/29 02:37:13;;;;;;;;;;;6.50;99.90;;;;;;4987665;28;19920;-56
2022/03/29 02:39:39;;;;;;;;;;;6.50;99.90;;;;;;4988405;28;20350;-53
2022/03/29 02:42:05;;;;;;;;;;;6.60;99.90;;;;;;4991460;28;19923;-53
2022/03/29 02:44:30;;;;;;;;;;;6.60;99.90;;;;;;4987249;28;19914;-55
2022/03/29 02:46:56;;;;;;;;;;;6.60;99.90;;;;;;4988501;28;20035;-55
2022/03/29 02:49:23;;;;;;;;;;;6.50;99.90;;;;;;4990364;28;19926;-53
2022/03/29 02:51:49;;;;;;;;;;;6.50;99.90;;;;;;4993518;28;19918;-55
2022/03/29 02:54:14;;;;;;;;;;;6.50;99.90;;;;;;4995274;28;20024;-54
2022/03/29 02:56:40;;;;;;;;;;;6.50;99.90;;;;;;4999231;28;20000;-55
2022/03/29 02:59:06;;;;;;;;;;;6.50;99.90;;;;;;5001043;28;19921;-54
2022/03/29 03:01:31;;;;;;;;;;;6.50;99.90;;;;;;4991765;28;19913;-53
2022/03/29 03:03:57;;;;;;;;;;;6.40;99.90;;;;;;4991506;28;19921;-57
2022/03/29 03:06:24;;;;;;;;;;;6.40;99.90;;;;;;4991723;28;19917;-56
2022/03/29 03:08:50;;;;;;;;;;;6.40;99.90;;;;;;4997355;28;19910;-53
2022/03/29 03:11:15;;;;;;;;;;;6.30;99.90;;;;;;4991884;28;20410;-50
2022/03/29 03:13:40;;;;;;;;;;;6.30;99.90;;;;;;4990869;28;19918;-53
2022/03/29 03:16:06;;;;;;;;;;;6.30;99.90;;;;;;4991794;28;19922;-53
2022/03/29 03:18:32;;;;;;;;;;;6.30;99.90;;;;;;4991709;28;19914;-53
2022/03/29 03:20:58;;;;;;;;;;;6.30;99.90;;;;;;4991028;28;19925;-57
2022/03/29 03:23:24;;;;;;;;;;;6.30;99.90;;;;;;5005532;28;19918;-53
2022/03/29 03:25:50;;;;;;;;;;;6.30;99.90;;;;;;4990741;28;19921;-53
2022/03/29 03:28:16;;;;;;;;;;;6.40;99.90;;;;;;4992543;28;20454;-51
2022/03/29 03:30:41;;;;;;;;;;;6.40;99.90;;;;;;4997679;28;19980;-57
2022/03/29 03:33:06;;;;;;;;;;;6.40;99.90;;;;;;4996111;28;20440;-55
2022/03/29 03:35:32;;;;;;;;;;;6.40;99.90;;;;;;4991539;28;20331;-51
2022/03/29 03:37:57;;;;;;;;;;;6.40;99.90;;;;;;4994260;28;19914;-55
2022/03/29 03:40:23;;;;;;;;;;;6.30;99.90;;;;;;4992401;28;20326;-54
2022/03/29 03:42:48;;;;;;;;;;;6.30;99.90;;;;;;4991920;28;19917;-53
2022/03/29 03:45:14;;;;;;;;;;;6.40;99.90;;;;;;4996024;28;19918;-53
2022/03/29 03:47:39;;;;;;;;;;;6.40;99.90;;;;;;4993446;28;19960;-53
2022/03/29 03:50:06;;;;;;;;;;;6.30;99.90;;;;;;4997051;28;19917;-54
2022/03/29 03:52:31;;;;;;;;;;;6.30;99.90;;;;;;4994494;28;19982;-53
2022/03/29 03:54:56;;;;;;;;;;;6.30;99.90;;;;;;4992040;28;20020;-54
2022/03/29 03:57:22;;;;;;;;;;;6.40;99.90;;;;;;4990511;28;20314;-53
2022/03/29 03:59:49;;;;;;;;;;;6.40;99.90;;;;;;4990932;28;19964;-55
2022/03/29 04:02:15;;;;;;;;;;;6.40;99.90;;;;;;4990171;28;19917;-56
2022/03/29 04:04:40;;;;;;;;;;;6.40;99.90;;;;;;4990696;28;20315;-51
2022/03/29 04:07:06;;;;;;;;;;;6.50;99.90;;;;;;4993404;28;20338;-49
2022/03/29 04:09:35;;;;;;;;;;;6.50;99.90;;;;;;5000873;28;19952;-56
2022/03/29 04:12:03;;;;;;;;;;;6.50;99.90;;;;;;4993478;28;19918;-50
2022/03/29 04:14:29;;;;;;;;;;;6.60;99.90;;;;;;4992829;28;19925;-54
2022/03/29 04:16:54;;;;;;;;;;;6.50;99.90;;;;;;4997560;28;19921;-50
2022/03/29 04:19:20;;;;;;;;;;;6.60;99.90;;;;;;4995204;28;19918;-55
2022/03/29 04:21:45;;;;;;;;;;;6.50;99.90;;;;;;4995567;28;19922;-52
2022/03/29 04:24:10;;;;;;;;;;;6.50;99.90;;;;;;4994735;28;19921;-56
2022/03/29 04:26:36;;;;;;;;;;;6.50;99.90;;;;;;4989801;28;19972;-54
2022/03/29 04:29:01;;;;;;;;;;;6.50;99.90;;;;;;4990685;28;19920;-51
2022/03/29 04:31:27;;;;;;;;;;;6.50;99.90;;;;;;4994768;28;19913;-56
2022/03/29 04:33:53;;;;;;;;;;;6.50;99.90;;;;;;4988848;28;19965;-56
2022/03/29 04:36:18;;;;;;;;;;;6.40;99.90;;;;;;4989656;28;20000;-56
2022/03/29 04:38:45;;;;;;;;;;;6.40;99.90;;;;;;4991088;28;20469;-50
2022/03/29 04:41:11;;;;;;;;;;;6.40;99.90;;;;;;4988872;28;20019;-56
2022/03/29 04:43:36;;;;;;;;;;;6.40;99.90;;;;;;4993566;28;20350;-55
2022/03/29 04:46:02;;;;;;;;;;;6.40;99.90;;;;;;4992382;28;19918;-57
2022/03/29 04:48:28;;;;;;;;;;;6.40;99.90;;;;;;4991455;28;19989;-55
2022/03/29 04:50:53;;;;;;;;;;;6.50;99.90;;;;;;4988485;28;19921;-54
2022/03/29 04:53:19;;;;;;;;;;;6.50;99.90;;;;;;4989758;28;19918;-52
2022/03/29 04:55:44;;;;;;;;;;;6.50;99.90;;;;;;4985257;28;19925;-55
2022/03/29 04:58:10;;;;;;;;;;;6.50;99.90;;;;;;4990821;28;20282;-52
2022/03/29 05:00:35;;;;;;;;;;;6.60;99.90;;;;;;4988847;28;19933;-53
2022/03/29 05:03:01;;;;;;;;;;;6.60;99.90;;;;;;4989923;28;19957;-52
2022/03/29 05:05:26;;;;;;;;;;;6.60;99.90;;;;;;4989418;28;19926;-55
2022/03/29 05:07:52;;;;;;;;;;;6.50;99.90;;;;;;4989032;28;20017;-54
2022/03/29 05:10:17;;;;;;;;;;;6.60;99.90;;;;;;4989545;28;20290;-49
2022/03/29 05:12:44;;;;;;;;;;;6.60;99.90;;;;;;4990402;28;20302;-55
2022/03/29 05:15:10;;;;;;;;;;;6.60;99.90;;;;;;4988946;28;19917;-53
2022/03/29 05:17:36;;;;;;;;;;;6.60;99.90;;;;;;4987287;28;19917;-50
2022/03/29 05:20:05;;;;;;;;;;;6.60;99.90;;;;;;4991025;28;19914;-55
2022/03/29 05:22:31;;;;;;;;;;;6.60;99.90;;;;;;4990447;28;20130;-53
2022/03/29 05:24:57;;;;;;;;;;;6.60;99.90;;;;;;4996107;28;19913;-50
2022/03/29 05:27:22;;;;;;;;;;;6.60;99.90;;;;;;4993376;28;20096;-49
2022/03/29 05:29:48;;;;;;;;;;;6.50;99.90;;;;;;4990161;28;20055;-49
2022/03/29 05:32:18;;;;;;;;;;;6.50;99.90;;;;;;4987338;28;20013;-49
2022/03/29 05:34:47;;;;;;;;;;;6.50;99.90;;;;;;4990824;28;19928;-52
2022/03/29 05:37:14;;;;;;;;;;;6.50;99.90;;;;;;4990125;28;19957;-56
2022/03/29 05:39:40;;;;;;;;;;;6.50;99.90;;;;;;4995019;28;19917;-49
2022/03/29 05:42:06;;;;;;;;;;;6.50;99.90;;;;;;4994026;28;20012;-52
2022/03/29 05:44:32;;;;;;;;;;;6.40;99.90;;;;;;4996541;28;20038;-52
2022/03/29 05:49:41;;;;;;;;;;;6.40;99.90;;;;;;4993192;28;19956;-52
2022/03/29 05:52:07;;;;;;;;;;;6.40;99.90;;;;;;4994894;28;19960;-56
2022/03/29 05:54:32;;;;;;;;;;;6.40;99.90;;;;;;4994105;28;19976;-53
2022/03/29 05:56:57;;;;;;;;;;;6.40;99.90;;;;;;4999970;28;20370;-53
2022/03/29 05:59:23;;;;;;;;;;;6.40;99.90;;;;;;4997415;28;19945;-55
2022/03/29 06:01:48;;;;;;;;;;;6.40;99.90;;;;;;4993545;28;20276;-52
2022/03/29 06:04:14;;;;;;;;;;;6.40;99.90;;;;;;5006304;22;19937;-54
2022/03/29 06:06:41;;;;;;;;;;;6.40;99.90;;;;;;4984619;28;19913;-54
2022/03/29 06:09:06;;;;;;;;;;;6.40;99.90;;;;;;4984997;28;19918;-57
2022/03/29 06:11:32;;;;;;;;;;;6.40;99.90;;;;;;4983879;28;19914;-55
2022/03/29 06:13:57;;;;;;;;;;;6.40;99.90;;;;;;4985772;28;20312;-57
2022/03/29 06:16:23;;;;;;;;;;;6.50;99.90;;;;;;4986827;28;20020;-58
2022/03/29 06:18:48;;;;;;;;;;;6.50;99.90;;;;;;4984615;28;19921;-55
2022/03/29 06:21:16;;;;;;;;;;;6.50;99.90;;;;;;4984466;28;19964;-56
2022/03/29 06:23:41;;;;;;;;;;;6.50;99.90;;;;;;4985234;28;19914;-57
2022/03/29 06:26:08;;;;;;;;;;;6.50;99.90;;;;;;4985592;28;20014;-56
2022/03/29 06:28:33;;;;;;;;;;;6.50;99.90;;;;;;4986267;28;19914;-57
2022/03/29 06:30:58;;;;;;;;;;;6.60;99.90;;;;;;4982680;28;19914;-55
2022/03/29 06:33:26;;;;;;;;;;;6.60;99.90;;;;;;4975525;28;19922;-57
2022/03/29 06:35:52;;;;;;;;;;;6.60;99.90;;;;;;4978824;28;20429;-57
2022/03/29 06:38:21;;;;;;;;;;;6.60;99.90;;;;;;4986094;28;20230;-57
2022/03/29 06:40:50;;;;;;;;;;;6.60;99.90;;;;;;4983463;28;20358;-58
2022/03/29 06:43:16;;;;;;;;;;;6.70;99.90;;;;;;4985566;28;20148;-58
2022/03/29 06:45:41;;;;;;;;;;;6.70;99.90;;;;;;4984311;28;19914;-58
2022/03/29 06:48:07;;;;;;;;;;;6.70;99.90;;;;;;4982802;28;19937;-58
2022/03/29 06:50:33;;;;;;;;;;;6.70;99.90;;;;;;4983945;28;20008;-57
2022/03/29 06:52:59;;;;;;;;;;;6.70;99.90;;;;;;4985495;28;20458;-58
2022/03/29 06:55:25;;;;;;;;;;;6.70;99.90;;;;;;4985039;28;19921;-58
2022/03/29 06:57:50;;;;;;;;;;;6.70;99.90;;;;;;4984128;28;19917;-58
2022/03/29 07:00:17;;;;;;;;;;;6.70;99.90;;;;;;4984617;28;20398;-58
2022/03/29 07:02:42;;;;;;;;;;;6.70;99.90;;;;;;4983259;28;19933;-57
2022/03/29 07:05:08;;;;;;;;;;;6.70;99.90;;;;;;4982619;28;19918;-58
2022/03/29 07:07:34;;;;;;;;;;;6.70;99.90;;;;;;4986135;28;20275;-57
2022/03/29 07:12:47;;;;;;;;;;;6.70;99.90;;;;;;4986095;28;19920;-58
2022/03/29 07:15:13;;;;;;;;;;;6.70;99.90;;;;;;4983136;28;19924;-58
2022/03/29 07:17:38;;;;;;;;;;;6.80;99.90;;;;;;4987131;28;20425;-58
2022/03/29 07:20:04;;;;;;;;;;;6.80;99.90;;;;;;4982774;28;20008;-57
2022/03/29 07:22:29;;;;;;;;;;;6.80;99.90;;;;;;4981258;28;20024;-58
2022/03/29 07:24:55;;;;;;;;;;;6.90;99.90;;;;;;4985512;28;19917;-58
2022/03/29 07:27:21;;;;;;;;;;;6.90;99.90;;;;;;4985097;28;20187;-58
2022/03/29 07:29:46;;;;;;;;;;;7.00;99.90;;;;;;4984260;28;19914;-58
2022/03/29 07:32:12;;;;;;;;;;;7.00;99.90;;;;;;4983224;28;19924;-58
2022/03/29 07:34:37;;;;;;;;;;;7.00;99.90;;;;;;4984389;28;19917;-58
2022/03/29 07:37:03;;;;;;;;;;;7.00;99.90;;;;;;4985066;28;19925;-58
2022/03/29 07:39:29;;;;;;;;;;;7.00;99.90;;;;;;4983728;28;20287;-58
2022/03/29 07:41:55;;;;;;;;;;;7.00;99.90;;;;;;4987711;28;19945;-58
2022/03/29 07:44:20;;;;;;;;;;;7.00;99.90;;;;;;4987606;28;19922;-56
2022/03/29 07:46:46;;;;;;;;;;;7.10;99.90;;;;;;4987687;28;19945;-55
2022/03/29 07:49:12;;;;;;;;;;;7.10;99.90;;;;;;4987115;28;19924;-58
2022/03/29 07:51:38;;;;;;;;;;;7.10;99.90;;;;;;4984456;28;19924;-58
2022/03/29 07:54:03;;;;;;;;;;;7.10;99.90;;;;;;4986790;28;19921;-58
2022/03/29 07:56:29;;;;;;;;;;;7.10;99.90;;;;;;4988122;28;20270;-57
2022/03/29 07:58:56;;;;;;;;;;;7.20;99.90;;;;;;4986632;28;20394;-58
2022/03/29 08:01:22;;;;;;;;;;;7.20;99.90;;;;;;4985831;28;19929;-58
2022/03/29 08:03:47;;;;;;;;;;;7.20;99.90;;;;;;4986482;28;19918;-58
2022/03/29 08:06:13;;;;;;;;;;;7.20;99.90;;;;;;4989163;28;19909;-58
2022/03/29 08:08:38;;;;;;;;;;;7.20;99.90;;;;;;4984965;28;19941;-58
2022/03/29 08:11:04;;;;;;;;;;;7.30;99.90;;;;;;4984116;28;20291;-58
2022/03/29 08:13:30;;;;;;;;;;;7.30;99.90;;;;;;4987498;28;19969;-57
2022/03/29 08:15:56;;;;;;;;;;;7.30;99.90;;;;;;4988540;28;19981;-58
2022/03/29 08:18:22;;;;;;;;;;;7.20;99.90;;;;;;4986546;28;19922;-57
2022/03/29 08:20:47;;;;;;;;;;;7.30;99.90;;;;;;4988302;28;20005;-58
2022/03/29 08:23:13;;;;;;;;;;;7.30;99.90;;;;;;4985105;28;19954;-57
2022/03/29 08:25:39;;;;;;;;;;;7.30;99.90;;;;;;4990074;28;19942;-57
2022/03/29 08:28:05;;;;;;;;;;;7.30;99.90;;;;;;4984518;28;20029;-58
2022/03/29 08:30:31;;;;;;;;;;;7.30;99.90;;;;;;4984826;28;19946;-58
2022/03/29 08:32:57;;;;;;;;;;;7.30;99.90;;;;;;4986489;28;20410;-56
2022/03/29 08:35:24;;;;;;;;;;;7.30;99.90;;;;;;4988525;28;20202;-57
2022/03/29 08:37:49;;;;;;;;;;;7.40;99.90;;;;;;4987352;28;20004;-58
2022/03/29 08:40:16;;;;;;;;;;;7.50;99.90;;;;;;4987077;28;20370;-58
2022/03/29 08:42:43;;;;;;;;;;;7.50;99.90;;;;;;4985016;28;19953;-58
2022/03/29 08:45:09;;;;;;;;;;;7.50;99.90;;;;;;4986005;28;20367;-58
2022/03/29 08:47:35;;;;;;;;;;;7.50;99.90;;;;;;4987749;28;19996;-58
2022/03/29 08:50:02;;;;;;;;;;;7.60;99.90;;;;;;4987862;28;20264;-58
2022/03/29 08:52:28;;;;;;;;;;;7.60;99.90;;;;;;4984798;28;19976;-57
2022/03/29 08:54:53;;;;;;;;;;;7.60;99.90;;;;;;4986880;28;19918;-57
2022/03/29 08:57:20;;;;;;;;;;;7.70;99.90;;;;;;4986635;28;19924;-58
2022/03/29 08:59:45;;;;;;;;;;;7.70;99.90;;;;;;4984283;28;20009;-56
2022/03/29 09:02:18;;;;;;;;;;;7.70;99.90;;;;;;4983260;28;20004;-58
2022/03/29 09:04:44;;;;;;;;;;;7.70;99.90;;;;;;4985371;28;19918;-57
2022/03/29 09:07:09;;;;;;;;;;;7.70;99.90;;;;;;4986826;28;19921;-57
2022/03/29 09:09:36;;;;;;;;;;;7.70;99.90;;;;;;4987369;28;20009;-57
2022/03/29 09:12:10;;;;;;;;;;;7.70;99.90;;;;;;4984452;28;20492;-57
2022/03/29 09:14:50;;;;;;;;;;;7.70;99.90;;;;;;4986404;28;19979;-57
2022/03/29 09:17:25;;;;;;;;;;;7.70;99.90;;;;;;4984339;28;20322;-56
2022/03/29 09:19:51;;;;;;;;;;;7.80;99.90;;;;;;4985707;28;19914;-57
2022/03/29 09:22:35;;;;;;;;;;;7.90;99.90;;;;;;4985891;28;19914;-56
2022/03/29 09:25:01;;;;;;;;;;;8.00;99.90;;;;;;4985357;28;19948;-57
2022/03/29 09:27:26;;;;;;;;;;;8.10;99.90;;;;;;4987455;28;19964;-58
2022/03/29 09:30:04;;;;;;;;;;;8.20;99.90;;;;;;4985731;28;19920;-58
2022/03/29 09:32:30;;;;;;;;;;;8.20;99.90;;;;;;4986400;28;19917;-58
2022/03/29 09:35:08;;;;;;;;;;;8.20;99.80;;;;;;4988094;28;19918;-59
2022/03/29 09:37:34;;;;;;;;;;;8.20;99.80;;;;;;4984609;28;20008;-58
2022/03/29 09:40:00;;;;;;;;;;;8.20;99.90;;;;;;4984812;28;19921;-58
2022/03/29 09:42:27;;;;;;;;;;;8.30;99.80;;;;;;4986140;28;19921;-57
2022/03/29 09:44:57;;;;;;;;;;;8.30;99.70;;;;;;4986827;28;19922;-58
2022/03/29 09:47:22;;;;;;;;;;;8.40;99.80;;;;;;4986549;28;19953;-58
2022/03/29 09:49:52;;;;;;;;;;;8.60;99.80;;;;;;4983745;28;20374;-58
2022/03/29 09:52:19;;;;;;;;;;;8.80;99.60;;;;;;4986306;28;19927;-58
2022/03/29 09:55:03;;;;;;;;;;;8.80;98.90;;;;;;4981770;28;19921;-58
2022/03/29 09:57:39;;;;;;;;;;;8.80;99.00;;;;;;4988130;28;19914;-58
2022/03/29 10:00:07;;;;;;;;;;;8.80;98.90;;;;;;4983663;28;19917;-54
2022/03/29 10:02:36;;;;;;;;;;;8.90;98.80;;;;;;4986923;28;19928;-59
2022/03/29 10:05:02;;;;;;;;;;;8.90;98.80;;;;;;4983923;28;19922;-58
2022/03/29 10:07:31;;;;;;;;;;;9.00;98.90;;;;;;4986170;28;19944;-56
2022/03/29 10:09:57;;;;;;;;;;;9.20;98.80;;;;;;4985860;28;19980;-57
2022/03/29 10:12:23;;;;;;;;;;;9.40;98.40;;;;;;4984282;28;20306;-57
2022/03/29 10:14:50;;;;;;;;;;;9.50;98.20;;;;;;4984273;28;19948;-57
2022/03/29 10:17:16;;;;;;;;;;;9.50;98.10;;;;;;4985662;28;19921;-59
2022/03/29 10:19:44;;;;;;;;;;;9.50;97.80;;;;;;4987193;28;19914;-58
2022/03/29 10:22:09;;;;;;;;;;;9.60;97.80;;;;;;4985066;28;20386;-59
2022/03/29 10:24:36;;;;;;;;;;;9.60;97.80;;;;;;4986334;28;19976;-56
2022/03/29 10:27:02;;;;;;;;;;;9.60;97.60;;;;;;4986605;28;19914;-57
2022/03/29 10:29:28;;;;;;;;;;;9.70;97.70;;;;;;4986296;28;20294;-56
2022/03/29 10:31:53;;;;;;;;;;;9.80;97.90;;;;;;4984841;28;20374;-53
2022/03/29 10:34:20;;;;;;;;;;;10.00;97.70;;;;;;4987019;28;19969;-57
2022/03/29 10:36:59;;;;;;;;;;;10.00;97.10;;;;;;4985619;28;19922;-59
2022/03/29 10:39:38;;;;;;;;;;;9.90;96.90;;;;;;4984736;28;19925;-58
2022/03/29 10:42:22;;;;;;;;;;;9.90;97.10;;;;;;4985665;28;19918;-56
2022/03/29 10:44:57;;;;;;;;;;;10.10;97.10;;;;;;4985652;28;19913;-57
2022/03/29 10:47:26;;;;;;;;;;;10.30;97.10;;;;;;4985319;28;19914;-56
2022/03/29 10:49:52;;;;;;;;;;;10.50;95.70;;;;;;4986804;28;20910;-58
2022/03/29 10:52:20;;;;;;;;;;;10.50;95.70;;;;;;4985993;28;19914;-58
2022/03/29 10:54:46;;;;;;;;;;;10.50;95.70;;;;;;4984601;28;19924;-58
2022/03/29 10:57:20;;;;;;;;;;;10.50;95.60;;;;;;4984903;28;19914;-58
2022/03/29 10:59:50;;;;;;;;;;;10.50;96.00;;;;;;4985036;28;19921;-58
2022/03/29 11:02:18;;;;;;;;;;;10.70;96.10;;;;;;4981941;28;19914;-59
2022/03/29 11:05:22;;;;;;;;;;;10.90;95.80;;;;;;4984086;28;19922;-58
2022/03/29 11:07:53;;;;;;;;;;;11.00;95.20;;;;;;4923236;29;20264;-58
2022/03/29 11:10:19;;;;;;;;;;;11.20;95.00;;;;;;4923711;29;20001;-57
2022/03/29 11:12:49;;;;;;;;;;;11.30;95.10;;;;;;4954679;28;20393;-59
2022/03/29 11:15:36;;;;;;;;;;;11.40;95.40;;;;;;4985478;28;20015;-58
2022/03/29 11:18:04;;;;;;;;;;;11.60;95.10;;;;;;4989276;28;20373;-58
2022/03/29 11:20:32;;;;;;;;;;;11.70;94.60;;;;;;4987003;28;19925;-58
2022/03/29 11:22:59;;;;;;;;;;;11.80;93.50;;;;;;4989115;28;20021;-58
2022/03/29 11:25:25;;;;;;;;;;;11.70;93.50;;;;;;4989937;28;19918;-58
2022/03/29 11:27:51;;;;;;;;;;;11.70;93.50;;;;;;4989423;28;19925;-58
2022/03/29 11:30:17;;;;;;;;;;;11.80;93.80;;;;;;4986918;28;20306;-58
2022/03/29 11:32:45;;;;;;;;;;;11.80;93.60;;;;;;4988088;28;19918;-58
2022/03/29 11:35:12;;;;;;;;;;;12.00;94.10;;;;;;4987387;28;20407;-57
2022/03/29 11:37:39;;;;;;;;;;;12.10;93.30;;;;;;4989535;28;20034;-58
2022/03/29 11:40:06;;;;;;;;;;;12.10;93.20;;;;;;4987603;28;19914;-58
2022/03/29 11:42:41;;;;;;;;;;;12.20;93.10;;;;;;4988735;28;20433;-58
2022/03/29 11:45:07;;;;;;;;;;;12.20;92.60;;;;;;4984540;28;19926;-58
2022/03/29 11:47:32;;;;;;;;;;;12.00;92.90;;;;;;4988946;28;19936;-58
2022/03/29 11:49:58;;;;;;;;;;;12.00;93.20;;;;;;4988272;28;20371;-58
2022/03/29 11:52:31;;;;;;;;;;;12.00;93.40;;;;;;4985792;28;20314;-58
2022/03/29 11:54:56;;;;;;;;;;;11.90;92.90;;;;;;4988384;28;19924;-58
2022/03/29 11:57:31;;;;;;;;;;;11.90;92.40;;;;;;4987851;28;19917;-58
2022/03/29 11:59:57;;;;;;;;;;;11.90;92.90;;;;;;4987260;28;20390;-59
2022/03/29 12:02:25;;;;;;;;;;;11.90;92.80;;;;;;4987505;28;19917;-58
2022/03/29 12:04:51;;;;;;;;;;;11.90;93.10;;;;;;5011459;23;20267;-53
2022/03/29 12:07:32;;;;;;;;;;;12.00;93.00;;;;;;5013493;28;19917;-51
2022/03/29 12:09:57;;;;;;;;;;;12.00;92.70;;;;;;5011111;28;20377;-53
2022/03/29 12:12:23;;;;;;;;;;;12.00;92.50;;;;;;5009052;28;19914;-51
2022/03/29 12:14:59;;;;;;;;;;;11.90;92.00;;;;;;5009159;28;19932;-53
2022/03/29 12:17:24;;;;;;;;;;;11.80;93.00;;;;;;5012149;28;19983;-52
2022/03/29 12:19:50;;;;;;;;;;;12.10;92.90;;;;;;5010211;28;20424;-53
2022/03/29 12:22:17;;;;;;;;;;;12.20;92.40;;;;;;5012065;28;20381;-51
2022/03/29 12:24:43;;;;;;;;;;;12.30;92.00;;;;;;5009838;28;19913;-49
2022/03/29 12:27:12;;;;;;;;;;;12.30;91.60;;;;;;5016479;28;19917;-54
2022/03/29 12:29:42;;;;;;;;;;;12.20;91.00;;;;;;5014948;28;19912;-52
2022/03/29 12:32:08;;;;;;;;;;;12.20;91.40;;;;;;5014223;28;19914;-54
2022/03/29 12:34:34;;;;;;;;;;;12.30;92.20;;;;;;5012574;28;19922;-51
2022/03/29 12:37:01;;;;;;;;;;;12.40;91.40;;;;;;5010780;28;19975;-54
2022/03/29 12:39:34;;;;;;;;;;;12.50;91.50;;;;;;5010300;28;20843;-54
2022/03/29 12:42:00;;;;;;;;;;;12.60;91.30;;;;;;5009395;28;19920;-54
2022/03/29 12:44:28;;;;;;;;;;;12.50;90.80;;;;;;5009349;28;19913;-53
2022/03/29 12:46:54;;;;;;;;;;;12.50;91.20;;;;;;5008462;28;20004;-48
2022/03/29 12:49:20;;;;;;;;;;;12.50;90.70;;;;;;5009553;28;19988;-53
2022/03/29 12:51:51;;;;;;;;;;;12.50;90.00;;;;;;5011032;28;19964;-52
2022/03/29 12:54:17;;;;;;;;;;;12.30;90.60;;;;;;5009435;28;19917;-52
2022/03/29 12:56:46;;;;;;;;;;;12.20;91.20;;;;;;5010915;28;19970;-53
2022/03/29 12:59:36;;;;;;;;;;;12.30;90.80;;;;;;5009259;28;20278;-49
2022/03/29 13:02:12;;;;;;;;;;;12.50;91.20;;;;;;4999411;28;19940;-51
2022/03/29 13:04:43;;;;;;;;;;;12.60;90.30;;;;;;5012211;28;20325;-52
2022/03/29 13:07:09;;;;;;;;;;;12.50;90.60;;;;;;5010986;28;19917;-51
2022/03/29 13:09:35;;;;;;;;;;;12.60;90.10;;;;;;5016040;28;19926;-48
2022/03/29 13:12:11;;;;;;;;;;;12.60;88.10;;;;;;5013982;28;20370;-51
2022/03/29 13:14:37;;;;;;;;;;;12.50;86.50;;;;;;5018092;28;19924;-50
2022/03/29 13:17:03;;;;;;;;;;;12.40;86.10;;;;;;5009929;28;20361;-47
2022/03/29 13:19:28;;;;;;;;;;;12.10;89.00;;;;;;5017516;28;19909;-54
2022/03/29 13:22:04;;;;;;;;;;;12.20;90.40;;;;;;5013325;28;19917;-52
2022/03/29 13:24:37;;;;;;;;;;;12.30;90.30;;;;;;5019831;28;19923;-50
2022/03/29 13:27:02;;;;;;;;;;;12.40;90.00;;;;;;5017212;28;19913;-49
2022/03/29 13:29:28;;;;;;;;;;;12.50;85.20;;;;;;5005029;28;19987;-54
2022/03/29 13:31:53;;;;;;;;;;;12.30;85.40;;;;;;5015379;28;20458;-52
2022/03/29 13:34:19;;;;;;;;;;;12.20;86.00;;;;;;5009294;28;19921;-51
2022/03/29 13:36:45;;;;;;;;;;;12.20;87.30;;;;;;5009217;28;19926;-49
2022/03/29 13:39:12;;;;;;;;;;;12.40;87.10;;;;;;5015631;28;19920;-48
2022/03/29 13:41:37;;;;;;;;;;;12.50;86.40;;;;;;5006898;28;20425;-52
2022/03/29 13:44:03;;;;;;;;;;;12.60;82.80;;;;;;5011946;28;19943;-54
2022/03/29 13:46:29;;;;;;;;;;;12.50;82.30;;;;;;5011923;28;19980;-51
2022/03/29 13:48:54;;;;;;;;;;;12.50;82.90;;;;;;5007800;28;19976;-52
2022/03/29 13:51:20;;;;;;;;;;;12.60;83.40;;;;;;5008295;28;19920;-52
2022/03/29 13:53:45;;;;;;;;;;;12.70;83.40;;;;;;5002569;28;20480;-52
2022/03/29 13:56:11;;;;;;;;;;;12.70;81.20;;;;;;5008189;28;20358;-49
2022/03/29 13:58:37;;;;;;;;;;;12.70;82.20;;;;;;5009050;28;19925;-52
2022/03/29 14:01:03;;;;;;;;;;;12.80;81.70;;;;;;5006709;28;19914;-50
2022/03/29 14:03:28;;;;;;;;;;;12.90;81.20;;;;;;5007351;28;20374;-52
2022/03/29 14:05:54;;;;;;;;;;;12.80;80.50;;;;;;5010601;28;19917;-51
2022/03/29 14:08:20;;;;;;;;;;;12.70;81.20;;;;;;5009373;28;20004;-51
2022/03/29 14:10:46;;;;;;;;;;;12.60;80.20;;;;;;5009812;28;19921;-49
2022/03/29 14:13:12;;;;;;;;;;;12.50;78.50;;;;;;5006653;28;19913;-51
2022/03/29 14:15:41;;;;;;;;;;;12.40;78.20;;;;;;5008249;28;20020;-50
2022/03/29 14:18:10;;;;;;;;;;;12.40;77.50;;;;;;5013586;28;20279;-52
2022/03/29 14:20:36;;;;;;;;;;;12.30;77.50;;;;;;5011552;28;20012;-48
2022/03/29 14:23:02;;;;;;;;;;;12.30;78.00;;;;;;5014864;28;20008;-50
2022/03/29 14:25:28;;;;;;;;;;;12.20;78.30;;;;;;5014111;28;19917;-53
2022/03/29 14:27:54;;;;;;;;;;;12.10;78.40;;;;;;5015349;28;19971;-53
2022/03/29 14:30:19;;;;;;;;;;;12.00;78.80;;;;;;5010572;28;19920;-49
2022/03/29 14:32:45;;;;;;;;;;;12.00;79.80;;;;;;5013159;28;19917;-47